sensor_id;sensor_type;location;lat;lon;timestamp;temperature;humidity
4279;DHT22;2153;47.744;10.580;2022-10-13T00:00:09;7.90;99.90
4279;DHT22;2153;47.744;10.580;2022-10-13T00:02:36;7.90;99.90
4279;DHT22;2153;47.744;10.580;2022-10-13T00:05:03;8.00;99.90
4279;DHT22;2153;47.744;10.580;2022-10-13T00:07:30;8.00;99.90
4279;DHT22;2153;47.744;10.580;2022-10-13T00:09:56;8.00;99.90
4279;DHT22;2153;47.744;10.580;2022-10-13T00:12:25;8.00;99.90
4279;DHT22;2153;47.744;10.580;2022-10-13T00:14:51;8.10;99.90
4279;DHT22;2153;47.744;10.580;2022-10-13T00:17:18;8.20;99.90
4279;DHT22;2153;47.744;10.580;2022-10-13T00:19:45;8.20;99.90
4279;DHT22;2153;47.744;10.580;2022-10-13T00:22:12;8.30;99.90
4279;DHT22;2153;47.744;10.580;2022-10-13T00:24:38;8.30;99.90
4279;DHT22;2153;47.744;10.580;2022-10-13T00:27:05;8.30;99.90
4279;DHT22;2153;47.744;10.580;2022-10-13T00:29:34;8.40;99.90
4279;DHT22;2153;47.744;10.580;2022-10-13T00:32:00;8.40;99.90
4279;DHT22;2153;47.744;10.580;2022-10-13T00:34:27;8.50;99.90
4279;DHT22;2153;47.744;10.580;2022-10-13T00:36:54;8.50;99.90
4279;DHT22;2153;47.744;10.580;2022-10-13T00:39:21;8.50;99.90
4279;DHT22;2153;47.744;10.580;2022-10-13T00:41:47;8.60;99.90
4279;DHT22;2153;47.744;10.580;2022-10-13T00:47:20;8.70;99.90
4279;DHT22;2153;47.744;10.580;2022-10-13T00:49:47;8.70;99.90
4279;DHT22;2153;47.744;10.580;2022-10-13T00:52:16;8.80;99.90
4279;DHT22;2153;47.744;10.580;2022-10-13T00:54:46;8.80;99.90
4279;DHT22;2153;47.744;10.580;2022-10-13T00:57:13;8.80;99.90
4279;DHT22;2153;47.744;10.580;2022-10-13T00:59:41;8.90;99.90
4279;DHT22;2153;47.744;10.580;2022-10-13T01:02:08;8.90;99.90
4279;DHT22;2153;47.744;10.580;2022-10-13T01:04:39;9.00;99.90
4279;DHT22;2153;47.744;10.580;2022-10-13T01:07:08;9.00;99.90
4279;DHT22;2153;47.744;10.580;2022-10-13T01:09:35;9.00;99.90
4279;DHT22;2153;47.744;10.580;2022-10-13T01:12:08;9.00;99.90
4279;DHT22;2153;47.744;10.580;2022-10-13T01:14:47;9.00;99.90
4279;DHT22;2153;47.744;10.580;2022-10-13T01:17:20;9.00;99.90
4279;DHT22;2153;47.744;10.580;2022-10-13T01:23:23;9.00;99.90
4279;DHT22;2153;47.744;10.580;2022-10-13T01:26:11;9.10;99.90
4279;DHT22;2153;47.744;10.580;2022-10-13T01:31:43;9.10;99.90
4279;DHT22;2153;47.744;10.580;2022-10-13T01:34:16;9.00;99.90
4279;DHT22;2153;47.744;10.580;2022-10-13T01:36:50;9.10;99.90
4279;DHT22;2153;47.744;10.580;2022-10-13T01:39:24;9.20;99.90
4279;DHT22;2153;47.744;10.580;2022-10-13T01:41:56;9.10;99.90
4279;DHT22;2153;47.744;10.580;2022-10-13T01:44:28;9.10;99.90
4279;DHT22;2153;47.744;10.580;2022-10-13T01:46:57;9.10;99.90
4279;DHT22;2153;47.744;10.580;2022-10-13T01:49:28;9.10;99.90
4279;DHT22;2153;47.744;10.580;2022-10-13T01:51:59;9.10;99.90
4279;DHT22;2153;47.744;10.580;2022-10-13T01:54:27;9.20;99.90
4279;DHT22;2153;47.744;10.580;2022-10-13T01:56:55;9.20;99.90
4279;DHT22;2153;47.744;10.580;2022-10-13T01:59:23;9.10;99.90
4279;DHT22;2153;47.744;10.580;2022-10-13T02:02:01;9.20;99.90
4279;DHT22;2153;47.744;10.580;2022-10-13T02:04:41;9.20;99.90
4279;DHT22;2153;47.744;10.580;2022-10-13T02:07:17;9.20;99.90
4279;DHT22;2153;47.744;10.580;2022-10-13T02:09:51;9.20;99.90
4279;DHT22;2153;47.744;10.580;2022-10-13T02:12:26;9.20;99.90
4279;DHT22;2153;47.744;10.580;2022-10-13T02:14:56;9.30;99.90
4279;DHT22;2153;47.744;10.580;2022-10-13T02:17:26;9.30;99.90
4279;DHT22;2153;47.744;10.580;2022-10-13T02:19:54;9.30;99.90
4279;DHT22;2153;47.744;10.580;2022-10-13T02:22:24;9.30;99.90
4279;DHT22;2153;47.744;10.580;2022-10-13T02:24:52;9.40;99.90
4279;DHT22;2153;47.744;10.580;2022-10-13T02:27:19;9.50;99.90
4279;DHT22;2153;47.744;10.580;2022-10-13T02:29:51;9.50;99.90
4279;DHT22;2153;47.744;10.580;2022-10-13T02:32:18;9.60;99.90
4279;DHT22;2153;47.744;10.580;2022-10-13T02:34:46;9.60;99.90
4279;DHT22;2153;47.744;10.580;2022-10-13T02:37:13;9.60;99.90
4279;DHT22;2153;47.744;10.580;2022-10-13T02:39:40;9.60;99.90
4279;DHT22;2153;47.744;10.580;2022-10-13T02:42:07;9.60;99.90
4279;DHT22;2153;47.744;10.580;2022-10-13T02:44:34;9.60;99.90
4279;DHT22;2153;47.744;10.580;2022-10-13T02:47:01;9.60;99.90
4279;DHT22;2153;47.744;10.580;2022-10-13T02:49:27;9.70;99.90
4279;DHT22;2153;47.744;10.580;2022-10-13T02:51:56;9.80;99.90
4279;DHT22;2153;47.744;10.580;2022-10-13T02:54:22;9.80;99.90
4279;DHT22;2153;47.744;10.580;2022-10-13T02:56:49;9.90;99.90
4279;DHT22;2153;47.744;10.580;2022-10-13T02:59:16;9.90;99.90
4279;DHT22;2153;47.744;10.580;2022-10-13T03:01:43;10.00;99.90
4279;DHT22;2153;47.744;10.580;2022-10-13T03:04:10;10.10;99.90
4279;DHT22;2153;47.744;10.580;2022-10-13T03:06:37;10.10;99.90
4279;DHT22;2153;47.744;10.580;2022-10-13T03:09:05;10.20;99.90
4279;DHT22;2153;47.744;10.580;2022-10-13T03:11:32;10.30;99.90
4279;DHT22;2153;47.744;10.580;2022-10-13T03:13:59;10.30;99.90
4279;DHT22;2153;47.744;10.580;2022-10-13T03:16:26;10.30;99.90
4279;DHT22;2153;47.744;10.580;2022-10-13T03:18:53;10.40;99.90
4279;DHT22;2153;47.744;10.580;2022-10-13T03:21:19;10.40;99.90
4279;DHT22;2153;47.744;10.580;2022-10-13T03:23:46;10.40;99.90
4279;DHT22;2153;47.744;10.580;2022-10-13T03:26:14;10.30;99.90
4279;DHT22;2153;47.744;10.580;2022-10-13T03:28:42;10.30;99.90
4279;DHT22;2153;47.744;10.580;2022-10-13T03:31:10;10.20;99.90
4279;DHT22;2153;47.744;10.580;2022-10-13T03:33:39;10.10;99.90
4279;DHT22;2153;47.744;10.580;2022-10-13T03:36:06;10.10;99.90
4279;DHT22;2153;47.744;10.580;2022-10-13T03:38:34;10.10;99.90
4279;DHT22;2153;47.744;10.580;2022-10-13T03:41:03;10.20;99.90
4279;DHT22;2153;47.744;10.580;2022-10-13T03:43:32;10.20;99.90
4279;DHT22;2153;47.744;10.580;2022-10-13T03:46:00;10.30;99.90
4279;DHT22;2153;47.744;10.580;2022-10-13T03:48:27;10.30;99.90
4279;DHT22;2153;47.744;10.580;2022-10-13T03:50:54;10.30;99.90
4279;DHT22;2153;47.744;10.580;2022-10-13T03:53:21;10.40;99.90
4279;DHT22;2153;47.744;10.580;2022-10-13T03:55:49;10.40;99.90
4279;DHT22;2153;47.744;10.580;2022-10-13T03:58:16;10.40;99.90
4279;DHT22;2153;47.744;10.580;2022-10-13T04:00:45;10.40;99.90
4279;DHT22;2153;47.744;10.580;2022-10-13T04:03:12;10.40;99.90
4279;DHT22;2153;47.744;10.580;2022-10-13T04:05:39;10.40;99.90
4279;DHT22;2153;47.744;10.580;2022-10-13T04:08:06;10.40;99.90
4279;DHT22;2153;47.744;10.580;2022-10-13T04:10:33;10.40;99.90
4279;DHT22;2153;47.744;10.580;2022-10-13T04:13:00;10.40;99.90
4279;DHT22;2153;47.744;10.580;2022-10-13T04:15:27;10.40;99.90
4279;DHT22;2153;47.744;10.580;2022-10-13T04:17:55;10.40;99.90
4279;DHT22;2153;47.744;10.580;2022-10-13T04:20:21;10.40;99.90
4279;DHT22;2153;47.744;10.580;2022-10-13T04:22:48;10.40;99.90
4279;DHT22;2153;47.744;10.580;2022-10-13T04:25:16;10.40;99.90
4279;DHT22;2153;47.744;10.580;2022-10-13T04:27:42;10.40;99.90
4279;DHT22;2153;47.744;10.580;2022-10-13T04:30:10;10.40;99.90
4279;DHT22;2153;47.744;10.580;2022-10-13T04:32:37;10.40;99.90
4279;DHT22;2153;47.744;10.580;2022-10-13T04:35:06;10.40;99.90
4279;DHT22;2153;47.744;10.580;2022-10-13T04:37:33;10.50;99.90
4279;DHT22;2153;47.744;10.580;2022-10-13T04:40:00;10.50;99.90
4279;DHT22;2153;47.744;10.580;2022-10-13T04:42:26;10.50;99.90
4279;DHT22;2153;47.744;10.580;2022-10-13T04:44:53;10.50;99.90
4279;DHT22;2153;47.744;10.580;2022-10-13T04:47:20;10.40;99.90
4279;DHT22;2153;47.744;10.580;2022-10-13T04:49:47;10.40;99.90
4279;DHT22;2153;47.744;10.580;2022-10-13T04:52:15;10.40;99.90
4279;DHT22;2153;47.744;10.580;2022-10-13T04:54:42;10.50;99.90
4279;DHT22;2153;47.744;10.580;2022-10-13T04:57:09;10.40;99.90
4279;DHT22;2153;47.744;10.580;2022-10-13T04:59:35;10.40;99.90
4279;DHT22;2153;47.744;10.580;2022-10-13T05:02:02;10.40;99.90
4279;DHT22;2153;47.744;10.580;2022-10-13T05:04:29;10.40;99.90
4279;DHT22;2153;47.744;10.580;2022-10-13T05:06:56;10.30;99.90
4279;DHT22;2153;47.744;10.580;2022-10-13T05:09:24;10.30;99.90
4279;DHT22;2153;47.744;10.580;2022-10-13T05:11:51;10.20;99.90
4279;DHT22;2153;47.744;10.580;2022-10-13T05:14:19;10.20;99.90
4279;DHT22;2153;47.744;10.580;2022-10-13T05:16:46;10.10;99.90
4279;DHT22;2153;47.744;10.580;2022-10-13T05:19:13;10.10;99.90
4279;DHT22;2153;47.744;10.580;2022-10-13T05:21:40;10.10;99.90
4279;DHT22;2153;47.744;10.580;2022-10-13T05:24:07;10.00;99.90
4279;DHT22;2153;47.744;10.580;2022-10-13T05:26:39;10.00;99.90
4279;DHT22;2153;47.744;10.580;2022-10-13T05:29:06;10.00;99.90
4279;DHT22;2153;47.744;10.580;2022-10-13T05:31:34;10.00;99.90
4279;DHT22;2153;47.744;10.580;2022-10-13T05:34:01;10.00;99.90
4279;DHT22;2153;47.744;10.580;2022-10-13T05:36:30;10.00;99.90
4279;DHT22;2153;47.744;10.580;2022-10-13T05:38:58;10.10;99.90
4279;DHT22;2153;47.744;10.580;2022-10-13T05:41:26;10.10;99.90
4279;DHT22;2153;47.744;10.580;2022-10-13T05:43:56;10.10;99.90
4279;DHT22;2153;47.744;10.580;2022-10-13T05:46:24;10.10;99.90
4279;DHT22;2153;47.744;10.580;2022-10-13T05:48:51;10.10;99.90
4279;DHT22;2153;47.744;10.580;2022-10-13T05:51:21;10.20;99.90
4279;DHT22;2153;47.744;10.580;2022-10-13T05:53:51;10.20;99.90
4279;DHT22;2153;47.744;10.580;2022-10-13T05:56:20;10.20;99.90
4279;DHT22;2153;47.744;10.580;2022-10-13T05:58:50;10.20;99.90
4279;DHT22;2153;47.744;10.580;2022-10-13T06:01:22;10.20;99.90
4279;DHT22;2153;47.744;10.580;2022-10-13T06:03:51;10.10;99.90
4279;DHT22;2153;47.744;10.580;2022-10-13T06:06:21;10.10;99.90
4279;DHT22;2153;47.744;10.580;2022-10-13T06:08:48;10.10;99.90
4279;DHT22;2153;47.744;10.580;2022-10-13T06:11:15;10.10;99.90
4279;DHT22;2153;47.744;10.580;2022-10-13T06:13:42;10.00;99.90
4279;DHT22;2153;47.744;10.580;2022-10-13T06:16:09;10.00;99.90
4279;DHT22;2153;47.744;10.580;2022-10-13T06:18:37;10.10;99.90
4279;DHT22;2153;47.744;10.580;2022-10-13T06:21:04;10.10;99.90
4279;DHT22;2153;47.744;10.580;2022-10-13T06:23:31;10.10;99.90
4279;DHT22;2153;47.744;10.580;2022-10-13T06:25:58;10.10;99.90
4279;DHT22;2153;47.744;10.580;2022-10-13T06:28:26;10.10;99.90
4279;DHT22;2153;47.744;10.580;2022-10-13T06:30:53;10.10;99.90
4279;DHT22;2153;47.744;10.580;2022-10-13T06:33:21;10.10;99.90
4279;DHT22;2153;47.744;10.580;2022-10-13T06:35:50;10.10;99.90
4279;DHT22;2153;47.744;10.580;2022-10-13T06:38:16;10.10;99.90
4279;DHT22;2153;47.744;10.580;2022-10-13T06:40:43;10.10;99.90
4279;DHT22;2153;47.744;10.580;2022-10-13T06:43:10;10.00;99.90
4279;DHT22;2153;47.744;10.580;2022-10-13T06:45:37;10.00;99.90
4279;DHT22;2153;47.744;10.580;2022-10-13T06:50:31;10.10;99.90
4279;DHT22;2153;47.744;10.580;2022-10-13T06:52:59;10.20;99.90
4279;DHT22;2153;47.744;10.580;2022-10-13T06:55:26;10.20;99.90
4279;DHT22;2153;47.744;10.580;2022-10-13T06:57:53;10.20;99.90
4279;DHT22;2153;47.744;10.580;2022-10-13T07:00:20;10.20;99.90
4279;DHT22;2153;47.744;10.580;2022-10-13T07:02:49;10.30;99.90
4279;DHT22;2153;47.744;10.580;2022-10-13T07:05:16;10.40;99.90
4279;DHT22;2153;47.744;10.580;2022-10-13T07:07:43;10.40;99.90
4279;DHT22;2153;47.744;10.580;2022-10-13T07:10:12;10.40;99.90
4279;DHT22;2153;47.744;10.580;2022-10-13T07:12:39;10.60;99.90
4279;DHT22;2153;47.744;10.580;2022-10-13T07:15:06;10.80;99.90
4279;DHT22;2153;47.744;10.580;2022-10-13T07:17:33;11.20;99.90
4279;DHT22;2153;47.744;10.580;2022-10-13T07:20:00;11.70;99.90
4279;DHT22;2153;47.744;10.580;2022-10-13T07:22:29;12.20;99.90
4279;DHT22;2153;47.744;10.580;2022-10-13T07:24:55;12.20;99.90
4279;DHT22;2153;47.744;10.580;2022-10-13T07:27:24;12.10;99.90
4279;DHT22;2153;47.744;10.580;2022-10-13T07:29:50;11.80;99.90
4279;DHT22;2153;47.744;10.580;2022-10-13T07:32:17;11.50;99.90
4279;DHT22;2153;47.744;10.580;2022-10-13T07:34:44;11.60;99.90
4279;DHT22;2153;47.744;10.580;2022-10-13T07:37:11;11.80;99.90
4279;DHT22;2153;47.744;10.580;2022-10-13T07:39:38;11.70;99.90
4279;DHT22;2153;47.744;10.580;2022-10-13T07:42:04;11.60;99.90
4279;DHT22;2153;47.744;10.580;2022-10-13T07:44:33;12.10;99.90
4279;DHT22;2153;47.744;10.580;2022-10-13T07:46:59;12.20;99.90
4279;DHT22;2153;47.744;10.580;2022-10-13T07:49:26;12.60;99.90
4279;DHT22;2153;47.744;10.580;2022-10-13T07:51:53;13.00;99.90
4279;DHT22;2153;47.744;10.580;2022-10-13T07:54:20;13.30;99.90
4279;DHT22;2153;47.744;10.580;2022-10-13T07:56:50;13.10;99.90
4279;DHT22;2153;47.744;10.580;2022-10-13T07:59:17;13.00;99.90
4279;DHT22;2153;47.744;10.580;2022-10-13T08:01:45;13.00;99.90
4279;DHT22;2153;47.744;10.580;2022-10-13T08:04:12;13.00;99.90
4279;DHT22;2153;47.744;10.580;2022-10-13T08:06:38;13.10;99.90
4279;DHT22;2153;47.744;10.580;2022-10-13T08:09:06;13.30;99.90
4279;DHT22;2153;47.744;10.580;2022-10-13T08:11:33;13.60;99.90
4279;DHT22;2153;47.744;10.580;2022-10-13T08:14:00;13.80;99.90
4279;DHT22;2153;47.744;10.580;2022-10-13T08:16:28;13.80;99.90
4279;DHT22;2153;47.744;10.580;2022-10-13T08:18:57;13.40;99.90
4279;DHT22;2153;47.744;10.580;2022-10-13T08:21:27;13.60;99.90
4279;DHT22;2153;47.744;10.580;2022-10-13T08:23:53;13.90;99.90
4279;DHT22;2153;47.744;10.580;2022-10-13T08:26:22;14.30;99.90
4279;DHT22;2153;47.744;10.580;2022-10-13T08:28:49;14.80;99.90
4279;DHT22;2153;47.744;10.580;2022-10-13T08:31:16;14.70;99.90
4279;DHT22;2153;47.744;10.580;2022-10-13T08:33:43;15.00;99.90
4279;DHT22;2153;47.744;10.580;2022-10-13T08:36:14;14.80;99.90
4279;DHT22;2153;47.744;10.580;2022-10-13T08:38:41;15.10;99.90
4279;DHT22;2153;47.744;10.580;2022-10-13T08:41:14;15.60;99.90
4279;DHT22;2153;47.744;10.580;2022-10-13T08:43:45;16.00;99.90
4279;DHT22;2153;47.744;10.580;2022-10-13T08:46:15;16.10;99.90
4279;DHT22;2153;47.744;10.580;2022-10-13T08:48:44;16.50;99.90
4279;DHT22;2153;47.744;10.580;2022-10-13T08:51:15;15.90;99.90
4279;DHT22;2153;47.744;10.580;2022-10-13T08:53:43;15.90;99.90
4279;DHT22;2153;47.744;10.580;2022-10-13T08:56:16;15.80;99.90
4279;DHT22;2153;47.744;10.580;2022-10-13T08:58:45;15.40;99.90
4279;DHT22;2153;47.744;10.580;2022-10-13T09:01:14;15.90;99.90
4279;DHT22;2153;47.744;10.580;2022-10-13T09:03:48;16.20;99.90
4279;DHT22;2153;47.744;10.580;2022-10-13T09:06:18;17.00;99.90
4279;DHT22;2153;47.744;10.580;2022-10-13T09:08:51;17.30;99.90
4279;DHT22;2153;47.744;10.580;2022-10-13T09:11:19;17.40;99.90
4279;DHT22;2153;47.744;10.580;2022-10-13T09:13:46;16.70;99.90
4279;DHT22;2153;47.744;10.580;2022-10-13T09:16:13;16.60;99.90
4279;DHT22;2153;47.744;10.580;2022-10-13T09:18:40;16.70;99.90
4279;DHT22;2153;47.744;10.580;2022-10-13T09:21:20;17.00;99.90
4279;DHT22;2153;47.744;10.580;2022-10-13T09:23:48;18.00;99.90
4279;DHT22;2153;47.744;10.580;2022-10-13T09:26:19;18.40;99.90
4279;DHT22;2153;47.744;10.580;2022-10-13T09:28:47;19.00;99.90
4279;DHT22;2153;47.744;10.580;2022-10-13T09:31:16;18.80;99.90
4279;DHT22;2153;47.744;10.580;2022-10-13T09:33:44;19.00;99.90
4279;DHT22;2153;47.744;10.580;2022-10-13T09:36:13;19.10;99.90
4279;DHT22;2153;47.744;10.580;2022-10-13T09:38:44;19.20;99.90
4279;DHT22;2153;47.744;10.580;2022-10-13T09:41:29;19.40;99.90
4279;DHT22;2153;47.744;10.580;2022-10-13T09:43:59;19.40;99.90
4279;DHT22;2153;47.744;10.580;2022-10-13T09:46:32;18.60;99.90
4279;DHT22;2153;47.744;10.580;2022-10-13T09:49:03;18.50;99.90
4279;DHT22;2153;47.744;10.580;2022-10-13T09:51:34;18.20;99.90
4279;DHT22;2153;47.744;10.580;2022-10-13T09:54:04;17.80;99.90
4279;DHT22;2153;47.744;10.580;2022-10-13T09:56:37;18.00;99.90
4279;DHT22;2153;47.744;10.580;2022-10-13T09:59:14;17.80;99.90
4279;DHT22;2153;47.744;10.580;2022-10-13T10:01:43;18.30;99.90
4279;DHT22;2153;47.744;10.580;2022-10-13T10:04:13;19.20;99.90
4279;DHT22;2153;47.744;10.580;2022-10-13T10:06:43;20.10;99.90
4279;DHT22;2153;47.744;10.580;2022-10-13T10:09:27;20.00;99.90
4279;DHT22;2153;47.744;10.580;2022-10-13T10:11:59;19.50;99.90
4279;DHT22;2153;47.744;10.580;2022-10-13T10:14:28;20.10;99.90
4279;DHT22;2153;47.744;10.580;2022-10-13T10:17:02;20.50;99.90
4279;DHT22;2153;47.744;10.580;2022-10-13T10:19:42;20.00;99.90
4279;DHT22;2153;47.744;10.580;2022-10-13T10:22:14;20.30;99.90
4279;DHT22;2153;47.744;10.580;2022-10-13T10:24:51;20.30;99.90
4279;DHT22;2153;47.744;10.580;2022-10-13T10:27:23;20.00;99.90
4279;DHT22;2153;47.744;10.580;2022-10-13T10:29:55;20.00;99.90
4279;DHT22;2153;47.744;10.580;2022-10-13T10:32:37;19.80;99.90
4279;DHT22;2153;47.744;10.580;2022-10-13T10:35:11;19.70;99.90
4279;DHT22;2153;47.744;10.580;2022-10-13T10:37:56;19.50;99.90
4279;DHT22;2153;47.744;10.580;2022-10-13T10:40:35;19.20;99.90
4279;DHT22;2153;47.744;10.580;2022-10-13T10:43:37;18.70;99.90
4279;DHT22;2153;47.744;10.580;2022-10-13T10:46:14;18.50;99.90
4279;DHT22;2153;47.744;10.580;2022-10-13T10:48:43;18.40;99.90
4279;DHT22;2153;47.744;10.580;2022-10-13T10:51:11;18.50;99.90
4279;DHT22;2153;47.744;10.580;2022-10-13T10:53:46;18.50;99.90
4279;DHT22;2153;47.744;10.580;2022-10-13T10:56:20;18.80;99.90
4279;DHT22;2153;47.744;10.580;2022-10-13T10:58:52;18.90;99.90
4279;DHT22;2153;47.744;10.580;2022-10-13T11:01:29;18.80;99.90
4279;DHT22;2153;47.744;10.580;2022-10-13T11:06:53;18.70;99.90
4279;DHT22;2153;47.744;10.580;2022-10-13T11:12:24;18.90;99.90
4279;DHT22;2153;47.744;10.580;2022-10-13T11:15:02;18.80;99.90
4279;DHT22;2153;47.744;10.580;2022-10-13T11:17:34;19.20;99.90
4279;DHT22;2153;47.744;10.580;2022-10-13T11:23:35;19.20;99.90
4279;DHT22;2153;47.744;10.580;2022-10-13T11:26:29;19.10;99.90
4279;DHT22;2153;47.744;10.580;2022-10-13T11:28:56;18.90;99.90
4279;DHT22;2153;47.744;10.580;2022-10-13T11:31:26;18.80;99.90
4279;DHT22;2153;47.744;10.580;2022-10-13T11:33:56;18.50;99.90
4279;DHT22;2153;47.744;10.580;2022-10-13T11:36:48;18.50;99.90
4279;DHT22;2153;47.744;10.580;2022-10-13T11:42:47;18.60;99.90
4279;DHT22;2153;47.744;10.580;2022-10-13T11:45:29;18.80;99.90
4279;DHT22;2153;47.744;10.580;2022-10-13T11:48:47;19.00;99.90
4279;DHT22;2153;47.744;10.580;2022-10-13T11:51:31;19.00;99.90
4279;DHT22;2153;47.744;10.580;2022-10-13T11:54:14;18.90;99.90
4279;DHT22;2153;47.744;10.580;2022-10-13T11:56:47;18.70;99.90
4279;DHT22;2153;47.744;10.580;2022-10-13T11:59:22;18.80;99.90
4279;DHT22;2153;47.744;10.580;2022-10-13T12:01:52;18.90;99.90
4279;DHT22;2153;47.744;10.580;2022-10-13T12:04:22;18.80;99.90
4279;DHT22;2153;47.744;10.580;2022-10-13T12:06:54;18.80;99.90
4279;DHT22;2153;47.744;10.580;2022-10-13T12:09:22;18.80;99.90
4279;DHT22;2153;47.744;10.580;2022-10-13T12:11:56;18.70;99.90
4279;DHT22;2153;47.744;10.580;2022-10-13T12:14:28;18.50;99.90
4279;DHT22;2153;47.744;10.580;2022-10-13T12:16:57;18.40;99.90
4279;DHT22;2153;47.744;10.580;2022-10-13T12:19:26;18.40;99.90
4279;DHT22;2153;47.744;10.580;2022-10-13T12:21:55;18.40;99.90
4279;DHT22;2153;47.744;10.580;2022-10-13T12:24:24;18.40;99.90
4279;DHT22;2153;47.744;10.580;2022-10-13T12:26:52;18.50;99.90
4279;DHT22;2153;47.744;10.580;2022-10-13T12:29:20;18.60;99.90
4279;DHT22;2153;47.744;10.580;2022-10-13T12:31:51;18.60;99.90
4279;DHT22;2153;47.744;10.580;2022-10-13T12:34:20;18.50;99.90
4279;DHT22;2153;47.744;10.580;2022-10-13T12:36:54;18.50;99.90
4279;DHT22;2153;47.744;10.580;2022-10-13T12:39:23;18.50;99.90
4279;DHT22;2153;47.744;10.580;2022-10-13T12:41:51;18.40;99.90
4279;DHT22;2153;47.744;10.580;2022-10-13T12:44:21;18.40;99.90
4279;DHT22;2153;47.744;10.580;2022-10-13T12:46:52;18.40;99.90
4279;DHT22;2153;47.744;10.580;2022-10-13T12:49:23;18.40;99.90
4279;DHT22;2153;47.744;10.580;2022-10-13T12:51:51;18.50;99.90
4279;DHT22;2153;47.744;10.580;2022-10-13T12:54:23;18.60;99.90
4279;DHT22;2153;47.744;10.580;2022-10-13T12:56:53;18.70;99.90
4279;DHT22;2153;47.744;10.580;2022-10-13T12:59:22;18.70;99.90
4279;DHT22;2153;47.744;10.580;2022-10-13T13:01:59;18.70;99.90
4279;DHT22;2153;47.744;10.580;2022-10-13T13:04:40;18.70;99.90
4279;DHT22;2153;47.744;10.580;2022-10-13T13:07:37;18.70;99.90
4279;DHT22;2153;47.744;10.580;2022-10-13T13:10:16;18.80;99.90
4279;DHT22;2153;47.744;10.580;2022-10-13T13:12:46;18.80;99.90
4279;DHT22;2153;47.744;10.580;2022-10-13T13:15:19;18.80;99.90
4279;DHT22;2153;47.744;10.580;2022-10-13T13:17:47;18.70;99.90
4279;DHT22;2153;47.744;10.580;2022-10-13T13:20:23;18.70;99.90
4279;DHT22;2153;47.744;10.580;2022-10-13T13:22:51;18.70;99.90
4279;DHT22;2153;47.744;10.580;2022-10-13T13:25:18;18.40;99.90
4279;DHT22;2153;47.744;10.580;2022-10-13T13:27:44;18.30;99.90
4279;DHT22;2153;47.744;10.580;2022-10-13T13:30:13;18.20;99.90
4279;DHT22;2153;47.744;10.580;2022-10-13T13:32:40;18.10;99.90
4279;DHT22;2153;47.744;10.580;2022-10-13T13:35:09;18.00;99.90
4279;DHT22;2153;47.744;10.580;2022-10-13T13:37:38;18.10;99.90
4279;DHT22;2153;47.744;10.580;2022-10-13T13:40:13;18.30;99.90
4279;DHT22;2153;47.744;10.580;2022-10-13T13:42:40;18.40;99.90
4279;DHT22;2153;47.744;10.580;2022-10-13T13:45:10;18.40;99.90
4279;DHT22;2153;47.744;10.580;2022-10-13T13:47:37;18.30;99.90
4279;DHT22;2153;47.744;10.580;2022-10-13T13:50:12;18.20;99.90
4279;DHT22;2153;47.744;10.580;2022-10-13T13:52:40;18.10;99.90
4279;DHT22;2153;47.744;10.580;2022-10-13T13:55:07;17.90;99.90
4279;DHT22;2153;47.744;10.580;2022-10-13T13:57:34;17.80;99.90
4279;DHT22;2153;47.744;10.580;2022-10-13T14:00:01;17.70;99.90
4279;DHT22;2153;47.744;10.580;2022-10-13T14:02:29;17.70;99.90
4279;DHT22;2153;47.744;10.580;2022-10-13T14:04:56;17.50;99.90
4279;DHT22;2153;47.744;10.580;2022-10-13T14:07:24;17.30;99.90
4279;DHT22;2153;47.744;10.580;2022-10-13T14:09:51;17.10;99.90
4279;DHT22;2153;47.744;10.580;2022-10-13T14:12:18;17.00;99.90
4279;DHT22;2153;47.744;10.580;2022-10-13T14:14:45;16.90;99.90
4279;DHT22;2153;47.744;10.580;2022-10-13T14:17:11;16.90;99.90
4279;DHT22;2153;47.744;10.580;2022-10-13T14:19:40;16.80;99.90
4279;DHT22;2153;47.744;10.580;2022-10-13T14:22:07;16.60;99.90
4279;DHT22;2153;47.744;10.580;2022-10-13T14:24:35;16.60;99.90
4279;DHT22;2153;47.744;10.580;2022-10-13T14:27:02;16.50;99.90
4279;DHT22;2153;47.744;10.580;2022-10-13T14:29:29;16.50;99.90
4279;DHT22;2153;47.744;10.580;2022-10-13T14:31:56;16.50;99.90
4279;DHT22;2153;47.744;10.580;2022-10-13T14:34:23;16.50;99.90
4279;DHT22;2153;47.744;10.580;2022-10-13T14:36:50;16.50;99.90
4279;DHT22;2153;47.744;10.580;2022-10-13T14:39:17;16.40;99.90
4279;DHT22;2153;47.744;10.580;2022-10-13T14:41:45;16.40;99.90
4279;DHT22;2153;47.744;10.580;2022-10-13T14:44:12;16.30;99.90
4279;DHT22;2153;47.744;10.580;2022-10-13T14:46:39;16.20;99.90
4279;DHT22;2153;47.744;10.580;2022-10-13T14:49:06;16.10;99.90
4279;DHT22;2153;47.744;10.580;2022-10-13T14:51:33;16.10;99.90
4279;DHT22;2153;47.744;10.580;2022-10-13T16:05:19;15.10;99.90
4279;DHT22;2153;47.744;10.580;2022-10-13T16:07:46;15.00;99.90
4279;DHT22;2153;47.744;10.580;2022-10-13T16:10:13;14.90;99.90
4279;DHT22;2153;47.744;10.580;2022-10-13T16:12:41;14.80;99.90
4279;DHT22;2153;47.744;10.580;2022-10-13T16:15:09;14.80;99.90
4279;DHT22;2153;47.744;10.580;2022-10-13T16:17:36;14.70;99.90
4279;DHT22;2153;47.744;10.580;2022-10-13T16:20:04;14.60;99.90
4279;DHT22;2153;47.744;10.580;2022-10-13T16:22:33;14.50;99.90
4279;DHT22;2153;47.744;10.580;2022-10-13T16:25:00;14.50;99.90
4279;DHT22;2153;47.744;10.580;2022-10-13T16:27:27;14.40;99.90
4279;DHT22;2153;47.744;10.580;2022-10-13T16:29:53;14.30;99.90
4279;DHT22;2153;47.744;10.580;2022-10-13T16:32:20;14.30;99.90
4279;DHT22;2153;47.744;10.580;2022-10-13T16:34:47;14.20;99.90
4279;DHT22;2153;47.744;10.580;2022-10-13T16:37:14;14.20;99.90
4279;DHT22;2153;47.744;10.580;2022-10-13T16:39:42;14.10;99.90
4279;DHT22;2153;47.744;10.580;2022-10-13T16:42:09;14.00;99.90
4279;DHT22;2153;47.744;10.580;2022-10-13T16:44:36;14.00;99.90
4279;DHT22;2153;47.744;10.580;2022-10-13T16:47:03;13.90;99.90
4279;DHT22;2153;47.744;10.580;2022-10-13T16:49:31;13.80;99.90
4279;DHT22;2153;47.744;10.580;2022-10-13T16:51:58;13.80;99.90
4279;DHT22;2153;47.744;10.580;2022-10-13T16:54:25;13.70;99.90
4279;DHT22;2153;47.744;10.580;2022-10-13T16:56:53;13.70;99.90
4279;DHT22;2153;47.744;10.580;2022-10-13T16:59:20;13.70;99.90
4279;DHT22;2153;47.744;10.580;2022-10-13T17:01:46;13.70;99.90
4279;DHT22;2153;47.744;10.580;2022-10-13T17:04:13;13.60;99.90
4279;DHT22;2153;47.744;10.580;2022-10-13T17:06:40;13.50;99.90
4279;DHT22;2153;47.744;10.580;2022-10-13T17:09:08;13.50;99.90
4279;DHT22;2153;47.744;10.580;2022-10-13T17:11:35;13.40;99.90
4279;DHT22;2153;47.744;10.580;2022-10-13T17:14:04;13.30;99.90
4279;DHT22;2153;47.744;10.580;2022-10-13T17:16:31;13.20;99.90
4279;DHT22;2153;47.744;10.580;2022-10-13T17:18:58;13.20;99.90
4279;DHT22;2153;47.744;10.580;2022-10-13T17:21:25;13.20;99.90
4279;DHT22;2153;47.744;10.580;2022-10-13T17:23:53;13.10;99.90
4279;DHT22;2153;47.744;10.580;2022-10-13T17:26:20;13.00;99.90
4279;DHT22;2153;47.744;10.580;2022-10-13T17:28:47;12.90;99.90
4279;DHT22;2153;47.744;10.580;2022-10-13T17:31:16;12.70;99.90
4279;DHT22;2153;47.744;10.580;2022-10-13T17:33:44;12.60;99.90
4279;DHT22;2153;47.744;10.580;2022-10-13T17:36:13;12.60;99.90
4279;DHT22;2153;47.744;10.580;2022-10-13T17:38:41;12.50;99.90